createdAt,value
2018-07-09T00:02:34.019Z,72.00
2018-07-09T00:05:08.357Z,71.90
2018-07-09T00:07:42.695Z,72.00
2018-07-09T00:10:28.491Z,72.40
2018-07-09T00:13:02.783Z,72.40
2018-07-09T00:15:37.105Z,73.20
2018-07-09T00:18:11.597Z,72.50
2018-07-09T00:20:45.993Z,73.00
2018-07-09T00:23:20.391Z,73.60
2018-07-09T00:25:55.349Z,73.90
2018-07-09T00:28:29.526Z,75.70
2018-07-09T00:31:03.873Z,75.40
2018-07-09T00:33:38.289Z,75.50
2018-07-09T00:36:12.690Z,74.40
2018-07-09T00:38:47.013Z,75.40
2018-07-09T00:41:23.077Z,76.90
2018-07-09T00:43:57.378Z,76.10
2018-07-09T00:49:05.914Z,76.50
2018-07-09T00:51:40.219Z,76.30
2018-07-09T00:54:14.414Z,76.50
2018-07-09T00:56:48.698Z,76.40
2018-07-09T00:59:22.935Z,78.30
2018-07-09T01:01:57.313Z,78.70
2018-07-09T01:04:31.614Z,78.10
2018-07-09T01:07:05.955Z,77.70
2018-07-09T01:09:40.242Z,77.60
2018-07-09T01:12:14.546Z,77.70
2018-07-09T01:14:48.826Z,78.70
2018-07-09T01:17:23.163Z,78.60
2018-07-09T01:19:57.485Z,79.20
2018-07-09T01:22:31.742Z,79.50
2018-07-09T01:25:06.039Z,79.60
2018-07-09T01:27:40.222Z,78.70
2018-07-09T01:30:15.755Z,79.20
2018-07-09T01:32:49.949Z,79.60
2018-07-09T01:35:24.259Z,79.80
2018-07-09T01:37:58.545Z,80.20
2018-07-09T01:40:32.846Z,80.60
2018-07-09T01:43:07.222Z,80.00
2018-07-09T01:45:41.426Z,80.10
2018-07-09T01:48:15.708Z,80.30
2018-07-09T01:50:49.855Z,80.30
2018-07-09T01:53:24.031Z,81.40
2018-07-09T01:55:58.311Z,81.80
2018-07-09T01:58:32.605Z,80.70
2018-07-09T02:01:06.914Z,80.00
2018-07-09T02:03:41.349Z,80.00
2018-07-09T02:06:15.678Z,80.00
2018-07-09T02:08:50.126Z,79.80
2018-07-09T02:11:24.345Z,79.50
2018-07-09T02:13:58.729Z,80.30
2018-07-09T02:16:33.025Z,80.30
2018-07-09T02:19:07.270Z,81.10
2018-07-09T02:21:41.678Z,80.40
2018-07-09T02:24:15.981Z,80.70
2018-07-09T02:26:50.295Z,80.90
2018-07-09T02:29:24.634Z,83.00
2018-07-09T02:31:58.919Z,82.10
2018-07-09T02:34:33.185Z,82.60
2018-07-09T02:37:07.570Z,81.90
2018-07-09T02:39:41.798Z,82.10
2018-07-09T02:42:16.109Z,82.00
2018-07-09T02:44:50.433Z,82.10
2018-07-09T02:47:24.747Z,82.60
2018-07-09T02:49:59.094Z,82.50
2018-07-09T02:52:33.546Z,81.70
2018-07-09T02:55:08.158Z,81.50
2018-07-09T02:57:42.357Z,81.50
2018-07-09T03:00:16.692Z,83.10
2018-07-09T03:02:51.017Z,82.60
2018-07-09T03:05:25.350Z,82.60
2018-07-09T03:07:59.778Z,82.60
2018-07-09T03:10:34.042Z,82.70
2018-07-09T03:13:08.732Z,83.40
2018-07-09T03:18:17.015Z,83.00
2018-07-09T03:20:51.223Z,82.80
2018-07-09T03:25:59.617Z,82.70
2018-07-09T03:28:33.974Z,82.70
2018-07-09T03:31:08.380Z,82.60
2018-07-09T03:33:42.671Z,82.60
2018-07-09T03:36:17.003Z,82.50
2018-07-09T03:41:25.229Z,83.40
2018-07-09T03:43:59.546Z,83.40
2018-07-09T03:46:33.893Z,83.70
2018-07-09T03:49:08.236Z,83.40
2018-07-09T03:51:42.502Z,83.40
2018-07-09T03:54:16.835Z,83.30
2018-07-09T03:56:51.186Z,83.10
2018-07-09T03:59:25.497Z,83.60
2018-07-09T04:01:59.746Z,83.20
2018-07-09T04:07:08.218Z,83.50
2018-07-09T04:09:42.581Z,83.60
2018-07-09T04:12:16.855Z,84.10
2018-07-09T04:14:51.282Z,84.00
2018-07-09T04:17:25.577Z,83.60
2018-07-09T04:19:59.953Z,84.00
2018-07-09T04:22:34.142Z,84.20
2018-07-09T04:25:08.587Z,84.00
2018-07-09T04:27:42.753Z,84.00
2018-07-09T04:30:17.046Z,83.70
2018-07-09T04:32:51.337Z,83.90
2018-07-09T04:35:25.938Z,83.90
2018-07-09T04:38:00.081Z,83.80
2018-07-09T04:43:09.026Z,84.00
2018-07-09T04:45:43.338Z,84.80
2018-07-09T04:48:17.730Z,86.10
2018-07-09T04:50:52.194Z,85.70
2018-07-09T04:53:26.580Z,86.00
2018-07-09T04:56:00.954Z,85.90
2018-07-09T04:58:35.256Z,86.30
2018-07-09T05:01:09.583Z,86.40
2018-07-09T05:03:43.881Z,86.10
2018-07-09T05:06:18.116Z,86.00
2018-07-09T05:08:52.559Z,86.20
2018-07-09T05:11:26.849Z,86.00
2018-07-09T05:14:01.121Z,86.70
2018-07-09T05:16:35.461Z,89.10
2018-07-09T05:19:09.806Z,88.30
2018-07-09T05:21:44.121Z,88.20
2018-07-09T05:24:18.382Z,86.70
2018-07-09T05:26:52.556Z,86.10
2018-07-09T05:29:26.978Z,85.70
2018-07-09T05:32:01.184Z,85.00
2018-07-09T05:34:35.625Z,85.10
2018-07-09T05:37:09.922Z,85.00
2018-07-09T05:39:44.810Z,84.90
2018-07-09T05:42:19.130Z,84.70
2018-07-09T05:44:53.469Z,85.30
2018-07-09T05:47:27.688Z,85.30
2018-07-09T05:50:02.001Z,85.90
2018-07-09T05:52:36.242Z,84.80
2018-07-09T05:55:10.585Z,84.80
2018-07-09T05:57:44.842Z,86.00
2018-07-09T06:00:19.230Z,85.80
2018-07-09T06:02:53.512Z,85.00
2018-07-09T06:05:27.865Z,85.70
2018-07-09T06:08:02.114Z,85.70
2018-07-09T06:10:36.422Z,85.30
2018-07-09T06:13:10.795Z,85.80
2018-07-09T06:15:45.011Z,85.90
2018-07-09T06:18:19.701Z,85.20
2018-07-09T06:20:54.058Z,85.90
2018-07-09T06:23:28.367Z,85.00
2018-07-09T06:26:02.704Z,85.90
2018-07-09T06:28:37.072Z,86.00
2018-07-09T06:31:11.384Z,85.30
2018-07-09T06:33:45.697Z,84.40
2018-07-09T06:36:19.964Z,85.10
2018-07-09T06:38:54.277Z,84.30
2018-07-09T06:41:28.640Z,84.50
2018-07-09T06:44:02.826Z,83.70
2018-07-09T06:46:37.098Z,83.70
2018-07-09T06:49:11.289Z,84.00
2018-07-09T06:51:45.502Z,83.70
2018-07-09T06:54:19.866Z,84.60
2018-07-09T06:56:54.285Z,84.30
2018-07-09T07:02:02.450Z,82.50
2018-07-09T07:04:36.822Z,81.80
2018-07-09T07:07:11.158Z,82.00
2018-07-09T07:09:45.593Z,81.30
2018-07-09T07:12:19.834Z,81.20
2018-07-09T07:14:54.069Z,80.80
2018-07-09T07:17:28.373Z,80.20
2018-07-09T07:20:02.919Z,79.00
2018-07-09T07:22:37.469Z,78.90
2018-07-09T07:25:11.797Z,78.50
2018-07-09T07:27:46.124Z,77.20
2018-07-09T07:30:20.387Z,77.80
2018-07-09T07:32:54.710Z,76.80
2018-07-09T07:35:29.210Z,76.60
2018-07-09T07:38:03.575Z,76.20
2018-07-09T07:40:37.855Z,75.60
2018-07-09T07:43:12.102Z,75.50
2018-07-09T07:45:46.559Z,75.60
2018-07-09T07:48:20.816Z,75.10
2018-07-09T07:50:55.181Z,75.70
2018-07-09T07:53:29.591Z,74.60
2018-07-09T07:56:03.825Z,74.80
2018-07-09T07:58:38.182Z,75.30
2018-07-09T08:01:12.511Z,75.80
2018-07-09T08:03:47.845Z,74.40
2018-07-09T08:06:22.202Z,74.50
2018-07-09T08:08:56.425Z,74.20
2018-07-09T08:11:47.728Z,74.10
2018-07-09T08:14:05.066Z,73.70
2018-07-09T08:16:39.394Z,74.10
2018-07-09T08:19:13.742Z,75.20
2018-07-09T08:21:48.074Z,75.30
2018-07-09T08:24:22.329Z,75.60
2018-07-09T08:26:56.635Z,75.70
2018-07-09T08:32:04.990Z,75.60
2018-07-09T08:34:39.223Z,76.70
2018-07-09T08:37:13.501Z,77.10
2018-07-09T08:39:47.955Z,78.00
2018-07-09T08:42:22.206Z,76.70
2018-07-09T08:44:56.505Z,76.80
2018-07-09T08:47:30.804Z,77.30
2018-07-09T08:50:05.480Z,76.40
2018-07-09T08:52:39.654Z,76.50
2018-07-09T08:57:48.059Z,75.60
2018-07-09T09:00:22.906Z,74.80
2018-07-09T09:02:57.187Z,74.70
2018-07-09T09:05:31.475Z,75.10
2018-07-09T09:08:05.784Z,74.90
2018-07-09T09:10:39.925Z,75.00
2018-07-09T09:13:14.153Z,74.70
2018-07-09T09:15:48.305Z,73.20
2018-07-09T09:18:22.656Z,74.20
2018-07-09T09:20:56.938Z,74.80
2018-07-09T09:23:31.267Z,74.20
2018-07-09T09:26:05.666Z,73.60
2018-07-09T09:28:39.843Z,73.90
2018-07-09T09:31:14.121Z,75.00
2018-07-09T09:33:48.442Z,77.90
2018-07-09T09:36:22.592Z,80.30
2018-07-09T09:38:56.897Z,79.50
2018-07-09T09:41:31.319Z,79.10
2018-07-09T09:44:05.634Z,78.50
2018-07-09T09:46:40.137Z,81.40
2018-07-09T09:49:14.469Z,79.90
2018-07-09T09:51:48.712Z,80.50
2018-07-09T09:54:22.962Z,83.20
2018-07-09T09:56:57.302Z,83.50
2018-07-09T09:59:31.598Z,82.40
2018-07-09T10:02:05.806Z,83.20
2018-07-09T10:04:40.083Z,83.60
2018-07-09T10:07:14.386Z,82.10
2018-07-09T10:09:48.718Z,84.30
2018-07-09T10:12:22.965Z,83.60
2018-07-09T10:14:57.394Z,85.10
2018-07-09T10:17:31.626Z,85.00
2018-07-09T10:20:05.983Z,85.20
2018-07-09T10:22:40.330Z,84.30
2018-07-09T10:25:14.623Z,84.90
2018-07-09T10:30:22.893Z,84.60
2018-07-09T10:32:57.301Z,82.40
2018-07-09T10:35:31.494Z,82.20
2018-07-09T10:38:06.482Z,83.50
2018-07-09T10:40:40.774Z,82.10
2018-07-09T10:43:15.063Z,83.30
2018-07-09T10:45:49.330Z,84.50
2018-07-09T10:48:23.595Z,83.50
2018-07-09T10:50:57.922Z,82.20
2018-07-09T10:53:32.247Z,84.10
2018-07-09T10:58:40.796Z,83.80
2018-07-09T11:01:15.082Z,83.20
2018-07-09T11:03:49.410Z,81.60
2018-07-09T11:06:23.691Z,82.50
2018-07-09T11:08:58.026Z,82.50
2018-07-09T11:11:32.353Z,81.50
2018-07-09T11:16:40.846Z,80.50
2018-07-09T11:19:15.178Z,80.30
2018-07-09T11:21:49.486Z,79.40
2018-07-09T11:24:23.875Z,78.50
2018-07-09T11:26:58.243Z,78.10
2018-07-09T11:29:32.582Z,77.80
2018-07-09T11:32:06.810Z,77.20
2018-07-09T11:34:41.035Z,78.40
2018-07-09T11:37:15.356Z,77.10
2018-07-09T11:39:49.685Z,78.90
2018-07-09T11:42:23.990Z,76.70
2018-07-09T11:44:58.302Z,76.10
2018-07-09T11:47:33.195Z,74.00
2018-07-09T11:50:07.777Z,74.90
2018-07-09T11:52:42.136Z,73.10
2018-07-09T11:55:16.394Z,75.30
2018-07-09T11:57:50.682Z,74.70
2018-07-09T12:02:59.070Z,75.20
2018-07-09T12:05:33.422Z,74.30
2018-07-09T12:08:07.754Z,75.70
2018-07-09T12:10:42.102Z,75.60
2018-07-09T12:13:16.439Z,74.90
2018-07-09T12:15:50.801Z,72.30
2018-07-09T12:18:25.078Z,70.70
2018-07-09T12:20:59.302Z,71.00
2018-07-09T12:23:33.484Z,71.50
2018-07-09T12:26:07.871Z,67.90
2018-07-09T12:28:42.111Z,68.40
2018-07-09T12:31:16.420Z,66.90
2018-07-09T12:33:50.646Z,66.40
2018-07-09T12:36:25.146Z,67.00
2018-07-09T12:38:59.339Z,67.50
2018-07-09T12:41:33.569Z,65.50
2018-07-09T12:44:07.839Z,64.40
2018-07-09T12:46:42.125Z,64.00
2018-07-09T12:49:16.413Z,65.60
2018-07-09T12:51:50.755Z,64.60
2018-07-09T12:54:25.203Z,65.70
2018-07-09T12:56:59.471Z,66.50
2018-07-09T12:59:33.754Z,65.60
2018-07-09T13:02:08.116Z,67.70
2018-07-09T13:04:42.442Z,67.70
2018-07-09T13:07:16.790Z,67.00
2018-07-09T13:09:51.046Z,67.70
2018-07-09T13:12:27.176Z,66.50
2018-07-09T13:15:01.571Z,66.30
2018-07-09T13:17:35.817Z,65.80
2018-07-09T13:20:10.151Z,65.00
2018-07-09T13:22:44.286Z,67.10
2018-07-09T13:25:18.591Z,66.50
2018-07-09T13:27:52.897Z,64.60
2018-07-09T13:30:27.171Z,64.00
2018-07-09T13:33:01.601Z,62.00
2018-07-09T13:35:36.023Z,62.20
2018-07-09T13:38:10.342Z,60.60
2018-07-09T13:40:44.622Z,60.70
2018-07-09T13:43:18.989Z,60.50
2018-07-09T13:45:53.245Z,62.50
2018-07-09T13:48:27.706Z,64.00
2018-07-09T13:53:35.987Z,63.10
2018-07-09T13:56:10.390Z,63.10
2018-07-09T13:58:44.686Z,62.40
2018-07-09T14:01:19.015Z,63.00
2018-07-09T14:03:53.391Z,61.80
2018-07-09T14:06:27.772Z,61.30
2018-07-09T14:09:02.105Z,63.00
2018-07-09T14:11:36.410Z,63.40
2018-07-09T14:14:10.829Z,65.90
2018-07-09T14:16:45.286Z,64.80
2018-07-09T14:20:38.206Z,64.80
2018-07-09T14:23:13.628Z,65.00
2018-07-09T14:25:47.918Z,66.40
2018-07-09T14:28:22.193Z,64.70
2018-07-09T14:30:56.606Z,66.70
2018-07-09T14:33:30.854Z,66.20
2018-07-09T14:36:05.444Z,69.10
2018-07-09T14:38:39.773Z,69.90
2018-07-09T14:41:14.146Z,71.80
2018-07-09T14:43:48.412Z,73.40
2018-07-09T14:46:22.738Z,73.50
2018-07-09T14:48:56.910Z,72.20
2018-07-09T14:51:31.330Z,73.10
2018-07-09T14:54:06.174Z,72.40
2018-07-09T14:56:40.484Z,72.10
2018-07-09T14:59:14.933Z,72.60
2018-07-09T15:01:49.293Z,71.50
2018-07-09T15:04:23.598Z,69.50
2018-07-09T15:06:57.929Z,70.80
2018-07-09T15:09:32.220Z,68.60
2018-07-09T15:12:06.540Z,68.20
2018-07-09T15:14:41.047Z,67.80
2018-07-09T15:17:15.259Z,65.90
2018-07-09T15:19:49.566Z,65.10
2018-07-09T15:22:23.861Z,66.30
2018-07-09T15:27:32.077Z,66.20
2018-07-09T15:30:07.455Z,67.20
2018-07-09T15:32:41.764Z,68.50
2018-07-09T15:35:15.941Z,66.10
2018-07-09T15:37:50.366Z,66.50
2018-07-09T15:40:24.578Z,66.30
2018-07-09T15:42:58.978Z,68.00
2018-07-09T15:45:33.276Z,66.60
2018-07-09T15:48:07.516Z,67.80
2018-07-09T15:50:41.801Z,68.40
2018-07-09T15:53:16.119Z,70.50
2018-07-09T15:55:50.294Z,74.50
2018-07-09T15:58:24.657Z,76.90
2018-07-09T16:00:58.877Z,75.10
2018-07-09T16:03:33.118Z,75.80
2018-07-09T16:06:07.318Z,76.80
2018-07-09T16:08:41.482Z,75.40
2018-07-09T16:11:15.889Z,74.00
2018-07-09T16:13:50.694Z,75.10
2018-07-09T16:16:25.153Z,74.20
2018-07-09T16:18:59.471Z,73.70
2018-07-09T16:21:33.740Z,71.70
2018-07-09T16:24:08.058Z,70.00
2018-07-09T16:26:42.467Z,70.80
2018-07-09T16:29:16.927Z,70.50
2018-07-09T16:31:51.088Z,69.90
2018-07-09T16:34:25.565Z,68.20
2018-07-09T16:36:59.922Z,68.20
2018-07-09T16:39:34.325Z,69.70
2018-07-09T16:42:08.481Z,69.30
2018-07-09T16:44:42.781Z,69.00
2018-07-09T16:47:17.146Z,69.20
2018-07-09T16:49:51.526Z,69.00
2018-07-09T16:52:25.945Z,68.90
2018-07-09T16:55:00.130Z,69.00
2018-07-09T16:57:34.478Z,68.70
2018-07-09T17:00:08.716Z,69.60
2018-07-09T17:02:43.020Z,68.00
2018-07-09T17:05:17.328Z,68.00
2018-07-09T17:07:51.594Z,68.50
2018-07-09T17:10:25.786Z,68.50
2018-07-09T17:13:00.207Z,70.70
2018-07-09T17:15:34.761Z,69.40
2018-07-09T17:18:09.063Z,70.80
2018-07-09T17:23:17.346Z,70.50
2018-07-09T17:25:51.594Z,69.50
2018-07-09T17:28:25.894Z,69.00
2018-07-09T17:33:34.911Z,70.00
2018-07-09T17:36:09.197Z,69.00
2018-07-09T17:38:43.407Z,70.00
2018-07-09T17:41:17.698Z,69.60
2018-07-09T17:43:52.437Z,69.90
2018-07-09T17:46:26.722Z,69.60
2018-07-09T17:49:01.517Z,71.10
2018-07-09T17:51:35.864Z,70.70
2018-07-09T17:54:10.359Z,70.50
2018-07-09T17:56:44.555Z,73.50
2018-07-09T17:59:18.901Z,71.20
2018-07-09T18:01:53.209Z,69.80
2018-07-09T18:04:27.582Z,68.70
2018-07-09T18:07:01.864Z,69.60
2018-07-09T18:09:36.203Z,69.10
2018-07-09T18:12:10.464Z,68.30
2018-07-09T18:14:44.746Z,71.00
2018-07-09T18:17:19.022Z,70.00
2018-07-09T18:19:53.171Z,71.00
2018-07-09T18:22:27.483Z,69.70
2018-07-09T18:25:01.760Z,70.90
2018-07-09T18:27:36.038Z,69.80
2018-07-09T18:30:10.394Z,71.00
2018-07-09T18:32:44.782Z,69.70
2018-07-09T18:35:18.951Z,70.70
2018-07-09T18:37:53.167Z,69.80
2018-07-09T18:40:27.498Z,71.40
2018-07-09T18:43:01.747Z,70.40
2018-07-09T18:45:36.014Z,68.90
2018-07-09T18:50:44.514Z,69.90
2018-07-09T18:53:18.825Z,71.00
2018-07-09T18:55:53.154Z,69.00
2018-07-09T18:58:27.492Z,69.30
2018-07-09T19:01:01.634Z,70.50
2018-07-09T19:03:35.758Z,69.40
2018-07-09T19:07:20.690Z,68.70
2018-07-09T19:09:55.009Z,68.80
2018-07-09T19:12:33.605Z,68.90
2018-07-09T19:15:08.671Z,69.70
2018-07-09T19:17:54.737Z,70.10
2018-07-09T19:22:48.194Z,70.70
2018-07-09T19:25:21.483Z,68.90
2018-07-09T19:27:54.943Z,71.30
2018-07-09T19:30:28.310Z,69.70
2018-07-09T19:33:01.606Z,70.80
2018-07-09T19:35:34.899Z,70.60
2018-07-09T19:38:08.138Z,72.80
2018-07-09T19:40:41.527Z,71.70
2018-07-09T19:43:14.875Z,71.40
2018-07-09T19:45:48.454Z,72.80
2018-07-09T19:48:21.578Z,72.00
2018-07-09T19:50:54.980Z,72.50
2018-07-09T19:53:28.430Z,73.50
2018-07-09T19:56:03.030Z,73.70
2018-07-09T19:58:36.349Z,71.40
2018-07-09T20:01:09.962Z,72.00
2018-07-09T20:03:43.385Z,72.00
2018-07-09T20:06:16.888Z,72.20
2018-07-09T20:08:55.837Z,72.90
2018-07-09T20:11:34.434Z,72.90
2018-07-09T20:14:12.987Z,73.30
2018-07-09T20:16:51.518Z,72.60
2018-07-09T20:19:24.990Z,73.60
2018-07-09T20:21:58.671Z,73.40
2018-07-09T20:24:31.899Z,71.20
2018-07-09T20:27:05.446Z,72.30
2018-07-09T20:29:38.746Z,71.60
2018-07-09T20:32:11.999Z,71.80
2018-07-09T20:34:45.233Z,72.10
2018-07-09T20:37:18.959Z,72.70
2018-07-09T20:39:52.368Z,73.10
2018-07-09T20:42:25.820Z,73.10
2018-07-09T20:44:59.049Z,73.00
2018-07-09T20:47:32.531Z,72.90
2018-07-09T20:50:05.895Z,73.20
2018-07-09T20:52:39.139Z,73.00
2018-07-09T20:55:12.511Z,75.30
2018-07-09T20:57:45.823Z,73.90
2018-07-09T21:00:19.111Z,74.20
2018-07-09T21:02:52.521Z,74.70
2018-07-09T21:05:25.895Z,74.00
2018-07-09T21:10:33.028Z,75.50
2018-07-09T21:13:06.275Z,73.80
2018-07-09T21:15:39.537Z,73.30
2018-07-09T21:18:12.946Z,75.60
2018-07-09T21:20:46.261Z,74.80
2018-07-09T21:23:19.508Z,74.00
2018-07-09T21:25:52.910Z,74.00
2018-07-09T21:28:26.198Z,74.00
2018-07-09T21:30:59.643Z,75.30
2018-07-09T21:33:33.128Z,73.20
2018-07-09T21:36:06.534Z,73.60
2018-07-09T21:38:40.656Z,73.30
2018-07-09T21:41:13.935Z,73.20
2018-07-09T21:43:47.367Z,72.80
2018-07-09T21:46:20.601Z,71.50
2018-07-09T21:48:53.879Z,73.40
2018-07-09T21:51:27.208Z,74.00
2018-07-09T21:54:00.460Z,73.50
2018-07-09T21:56:33.768Z,72.50
2018-07-09T21:59:07.214Z,72.50
2018-07-09T22:01:40.578Z,74.30
2018-07-09T22:04:13.801Z,73.20
2018-07-09T22:06:47.059Z,75.50
2018-07-09T22:09:20.309Z,74.40
2018-07-09T22:11:53.774Z,73.30
2018-07-09T22:14:27.143Z,73.30
2018-07-09T22:17:00.445Z,74.70
2018-07-09T22:19:33.753Z,75.10
2018-07-09T22:22:07.106Z,75.80
2018-07-09T22:24:40.582Z,73.80
2018-07-09T22:27:13.954Z,74.40
2018-07-09T22:29:47.235Z,73.80
2018-07-09T22:32:21.523Z,73.30
2018-07-09T22:34:55.878Z,74.00
2018-07-09T22:37:30.093Z,73.90
2018-07-09T22:40:04.501Z,73.50
2018-07-09T22:42:38.770Z,73.80
2018-07-09T22:45:13.095Z,74.10
2018-07-09T22:47:47.373Z,73.40
2018-07-09T22:50:21.661Z,73.40
2018-07-09T22:56:12.015Z,74.70
2018-07-09T22:58:46.349Z,74.40
2018-07-09T23:01:20.654Z,75.50
2018-07-09T23:03:55.046Z,76.20
2018-07-09T23:06:29.225Z,75.20
2018-07-09T23:09:15.003Z,75.10
2018-07-09T23:16:11.686Z,74.10
2018-07-09T23:19:00.262Z,74.90
2018-07-09T23:21:48.675Z,75.20
2018-07-09T23:26:56.437Z,75.60
2018-07-09T23:29:29.765Z,75.30
2018-07-09T23:32:03.080Z,76.30
2018-07-09T23:34:36.500Z,76.60
2018-07-09T23:37:09.826Z,77.20
2018-07-09T23:39:43.300Z,77.90
2018-07-09T23:42:16.713Z,80.30
2018-07-09T23:44:49.908Z,80.70
2018-07-09T23:47:23.302Z,82.20
2018-07-09T23:49:56.663Z,82.70
2018-07-09T23:52:29.908Z,84.90
2018-07-09T23:55:03.273Z,83.60
